Time;durP1;ratioP1;P1;durP2;ratioP2;P2;SDS_P1;SDS_P2;PMS_P1;PMS_P2;Temp;Humidity;BMP_temperature;BMP_pressure;BME280_temperature;BME280_humidity;BME280_pressure;Samples;Min_cycle;Max_cycle;Signal;HPM_P1;HPM_P2
2022/03/04 00:01:53;;;;;;;12.85;7.75;;;2.50;1.00;;;;;;6154853;23;20439;-88
2022/03/04 00:04:20;;;;;;;11.30;8.63;;;2.50;1.00;;;;;;6153912;23;20175;-84
2022/03/04 00:06:50;;;;;;;15.05;9.73;;;2.50;1.00;;;;;;6150567;23;20227;-84
2022/03/04 00:09:17;;;;;;;12.10;9.60;;;2.50;1.00;;;;;;6147158;23;20203;-85
2022/03/04 00:11:45;;;;;;;14.20;8.43;;;2.50;1.00;;;;;;6147471;23;20196;-85
2022/03/04 00:14:12;;;;;;;11.73;8.32;;;2.50;1.00;;;;;;6147942;23;20188;-86
2022/03/04 00:16:38;;;;;;;10.95;9.68;;;2.50;1.00;;;;;;6146436;23;20188;-86
2022/03/04 00:19:09;;;;;;;12.10;9.45;;;2.50;1.00;;;;;;6149652;23;20208;-85
2022/03/04 00:21:37;;;;;;;13.05;9.32;;;2.50;1.00;;;;;;6151798;23;20195;-85
2022/03/04 00:24:05;;;;;;;10.82;9.63;;;2.40;1.00;;;;;;6154702;23;20280;-86
2022/03/04 00:26:36;;;;;;;12.73;10.30;;;2.40;1.00;;;;;;6149836;23;20191;-84
2022/03/04 00:29:05;;;;;;;14.27;9.05;;;2.40;1.00;;;;;;6150939;23;20263;-85
2022/03/04 00:31:33;;;;;;;10.93;8.80;;;2.40;1.00;;;;;;6143823;23;20251;-85
2022/03/04 00:34:00;;;;;;;11.57;9.20;;;2.40;1.00;;;;;;6138574;23;20204;-85
2022/03/04 00:36:28;;;;;;;15.25;9.18;;;2.40;1.00;;;;;;6140823;23;20192;-85
2022/03/04 00:38:57;;;;;;;13.07;9.70;;;2.40;1.00;;;;;;6144114;23;20192;-84
2022/03/04 00:41:24;;;;;;;11.52;8.55;;;2.40;1.00;;;;;;6146268;23;20252;-86
2022/03/04 00:43:53;;;;;;;16.17;10.75;;;2.40;1.00;;;;;;6151227;23;20210;-86
2022/03/04 00:46:24;;;;;;;12.80;9.82;;;2.40;1.00;;;;;;6158594;23;20186;-85
2022/03/04 00:48:51;;;;;;;16.13;12.05;;;2.30;1.00;;;;;;6158222;23;20200;-79
2022/03/04 00:51:21;;;;;;;16.23;11.60;;;2.30;1.00;;;;;;6154876;23;20241;-79
2022/03/04 00:53:48;;;;;;;19.23;13.18;;;2.30;1.00;;;;;;6155939;23;20207;-79
2022/03/04 00:56:15;;;;;;;22.42;12.75;;;2.30;1.00;;;;;;6157291;23;20258;-80
2022/03/04 00:58:42;;;;;;;21.63;14.65;;;2.30;1.00;;;;;;6155015;23;20220;-79
2022/03/04 01:01:09;;;;;;;24.52;15.10;;;2.30;1.00;;;;;;6155526;23;20231;-79
2022/03/04 01:03:37;;;;;;;28.98;15.68;;;2.40;1.00;;;;;;6152933;23;20199;-81
2022/03/04 01:06:06;;;;;;;28.50;18.50;;;2.40;1.00;;;;;;6150207;23;20276;-82
2022/03/04 01:08:33;;;;;;;29.83;17.95;;;2.30;1.00;;;;;;6144971;23;20207;-80
2022/03/04 01:11:02;;;;;;;35.60;18.67;;;2.20;1.00;;;;;;6135739;23;20200;-80
2022/03/04 01:13:29;;;;;;;36.45;20.40;;;2.20;1.00;;;;;;6128854;23;20196;-84
2022/03/04 01:15:56;;;;;;;34.90;20.77;;;2.20;1.00;;;;;;6133668;23;20255;-84
2022/03/04 01:18:23;;;;;;;34.65;21.30;;;2.10;1.00;;;;;;6131979;23;20255;-83
2022/03/04 01:20:52;;;;;;;40.65;21.98;;;2.10;1.00;;;;;;6124108;23;20204;-83
2022/03/04 01:23:22;;;;;;;36.15;21.85;;;2.10;1.00;;;;;;6127989;23;20202;-83
2022/03/04 01:25:52;;;;;;;42.10;21.90;;;2.10;1.00;;;;;;6129048;23;20192;-84
2022/03/04 01:28:21;;;;;;;41.08;22.10;;;2.10;1.00;;;;;;6130050;23;20307;-84
2022/03/04 01:30:48;;;;;;;44.35;22.65;;;2.10;1.00;;;;;;6130236;23;20267;-84
2022/03/04 01:33:15;;;;;;;36.47;21.98;;;2.20;1.00;;;;;;6128127;23;20208;-85
2022/03/04 01:35:42;;;;;;;44.78;22.83;;;2.20;1.00;;;;;;6132629;23;20262;-84
2022/03/04 01:38:11;;;;;;;38.88;21.52;;;2.10;1.00;;;;;;6142842;23;20193;-87
2022/03/04 01:40:38;;;;;;;34.75;21.45;;;2.10;1.00;;;;;;6154494;23;20248;-85
2022/03/04 01:43:05;;;;;;;35.90;20.75;;;2.20;1.00;;;;;;6155835;23;20176;-85
2022/03/04 01:45:32;;;;;;;34.08;22.55;;;2.20;1.00;;;;;;6152767;23;20192;-86
2022/03/04 01:47:59;;;;;;;42.88;20.60;;;2.30;1.00;;;;;;6154141;23;20200;-84
2022/03/04 01:50:28;;;;;;;35.88;21.65;;;2.40;1.00;;;;;;6154296;23;20175;-86
2022/03/04 01:52:56;;;;;;;33.78;19.90;;;2.30;1.00;;;;;;6151746;23;20203;-85
2022/03/04 01:55:24;;;;;;;41.25;21.38;;;2.20;1.00;;;;;;6152498;23;20263;-84
2022/03/04 01:57:51;;;;;;;35.58;22.33;;;2.20;1.00;;;;;;6150092;23;20196;-84
2022/03/04 02:00:20;;;;;;;32.72;21.27;;;2.20;1.00;;;;;;6148750;23;20252;-86
2022/03/04 02:02:47;;;;;;;48.45;23.45;;;2.20;1.00;;;;;;6147590;23;20200;-86
2022/03/04 02:05:15;;;;;;;42.00;22.85;;;2.20;1.00;;;;;;6136536;23;20398;-85
2022/03/04 02:07:42;;;;;;;39.33;21.63;;;2.30;1.00;;;;;;6133317;23;20218;-86
2022/03/04 02:10:10;;;;;;;46.70;20.15;;;2.30;1.00;;;;;;6136755;23;20309;-85
2022/03/04 02:12:38;;;;;;;44.97;21.30;;;2.30;1.00;;;;;;6132307;23;20210;-84
2022/03/04 02:15:15;;;;;;;39.40;19.90;;;2.30;1.00;;;;;;6140364;23;20195;-86
2022/03/04 02:17:42;;;;;;;42.42;21.85;;;2.40;1.00;;;;;;6134714;23;20187;-83
2022/03/04 02:20:10;;;;;;;37.78;22.80;;;2.40;1.00;;;;;;6130588;23;20204;-84
2022/03/04 02:22:38;;;;;;;35.53;21.55;;;2.40;1.00;;;;;;6130021;23;20922;-86
2022/03/04 02:25:06;;;;;;;40.50;21.33;;;2.50;1.00;;;;;;6141405;23;20239;-87
2022/03/04 02:27:33;;;;;;;40.08;21.83;;;2.40;1.00;;;;;;6152456;23;20200;-86
2022/03/04 02:30:05;;;;;;;37.55;19.70;;;2.50;1.00;;;;;;6129629;23;20198;-84
2022/03/04 02:32:36;;;;;;;48.53;20.85;;;2.50;1.00;;;;;;6127694;23;20950;-84
2022/03/04 02:35:06;;;;;;;39.13;19.25;;;2.60;1.00;;;;;;6131452;23;20199;-84
2022/03/04 02:37:34;;;;;;;41.47;21.33;;;2.60;1.00;;;;;;6140237;23;20247;-80
2022/03/04 02:40:03;;;;;;;38.67;18.75;;;2.70;1.00;;;;;;6135511;23;20184;-81
2022/03/04 02:42:30;;;;;;;36.55;18.27;;;2.70;1.00;;;;;;6133706;23;20223;-82
2022/03/04 02:44:57;;;;;;;37.00;17.90;;;2.70;1.00;;;;;;6130862;23;20200;-80
2022/03/04 02:47:23;;;;;;;37.58;19.25;;;2.70;1.00;;;;;;6131965;23;20199;-85
2022/03/04 02:49:51;;;;;;;38.90;17.85;;;2.80;1.00;;;;;;6130367;23;20228;-84
2022/03/04 02:52:20;;;;;;;35.28;19.02;;;2.70;1.00;;;;;;6132759;23;20200;-85
2022/03/04 02:54:47;;;;;;;38.33;18.50;;;2.70;1.00;;;;;;6132097;23;20196;-83
2022/03/04 02:57:16;;;;;;;38.50;19.27;;;2.70;1.00;;;;;;6137657;23;20223;-86
2022/03/04 02:59:43;;;;;;;43.35;20.73;;;2.60;1.00;;;;;;6151446;23;20194;-84
2022/03/04 03:02:10;;;;;;;39.30;19.10;;;2.60;1.00;;;;;;6151222;23;20208;-87
2022/03/04 03:04:37;;;;;;;35.38;18.25;;;2.70;1.00;;;;;;6153516;23;20244;-84
2022/03/04 03:07:08;;;;;;;39.30;21.08;;;2.70;1.00;;;;;;6138080;23;20196;-83
2022/03/04 03:09:35;;;;;;;39.30;18.85;;;2.70;1.00;;;;;;6129004;23;20488;-86
2022/03/04 03:12:06;;;;;;;36.22;21.30;;;2.70;1.00;;;;;;6126667;23;21037;-85
2022/03/04 03:14:39;;;;;;;35.95;18.80;;;2.80;1.00;;;;;;6131218;23;20192;-85
2022/03/04 03:17:06;;;;;;;37.28;16.55;;;2.80;1.00;;;;;;6132212;23;20238;-85
2022/03/04 03:19:33;;;;;;;39.65;18.10;;;2.80;1.00;;;;;;6129405;23;20196;-83
2022/03/04 03:22:01;;;;;;;33.25;16.90;;;2.90;1.00;;;;;;6129196;23;20227;-85
2022/03/04 03:24:28;;;;;;;31.75;17.45;;;2.90;1.00;;;;;;6128406;23;20200;-85
2022/03/04 03:27:05;;;;;;;31.42;16.75;;;2.90;1.00;;;;;;6128601;23;20187;-85
2022/03/04 03:29:32;;;;;;;41.47;17.98;;;3.00;1.00;;;;;;6130328;23;20239;-85
2022/03/04 03:32:01;;;;;;;27.65;15.80;;;2.90;1.00;;;;;;6127026;23;20638;-85
2022/03/04 03:34:28;;;;;;;28.00;16.90;;;2.90;1.00;;;;;;6130566;23;20196;-87
2022/03/04 03:36:55;;;;;;;35.45;14.85;;;2.90;1.00;;;;;;6131235;23;20180;-85
2022/03/04 03:39:25;;;;;;;34.95;17.15;;;2.90;1.00;;;;;;6132105;23;20203;-85
2022/03/04 03:41:52;;;;;;;29.30;14.40;;;2.90;1.00;;;;;;6131933;23;20196;-85
2022/03/04 03:44:19;;;;;;;27.67;13.73;;;2.90;1.00;;;;;;6133951;23;20195;-80
2022/03/04 03:46:46;;;;;;;26.67;13.90;;;2.90;1.00;;;;;;6148288;23;20191;-77
2022/03/04 03:49:14;;;;;;;22.63;13.10;;;2.90;1.00;;;;;;6151028;23;20196;-77
2022/03/04 03:51:42;;;;;;;26.33;15.75;;;2.90;1.00;;;;;;6150586;23;20192;-80
2022/03/04 03:54:08;;;;;;;24.45;13.52;;;2.80;1.00;;;;;;6142043;23;20921;-83
2022/03/04 03:56:36;;;;;;;23.60;13.85;;;2.80;1.00;;;;;;6126156;23;20211;-85
2022/03/04 03:59:03;;;;;;;29.60;14.20;;;2.80;1.00;;;;;;6126306;23;21071;-85
2022/03/04 04:01:30;;;;;;;22.35;13.13;;;2.80;1.00;;;;;;6126430;23;20188;-84
2022/03/04 04:03:57;;;;;;;20.15;12.23;;;2.80;1.00;;;;;;6128978;23;20199;-85
2022/03/04 04:06:26;;;;;;;22.42;12.90;;;2.80;1.00;;;;;;6127490;23;20196;-85
2022/03/04 04:08:53;;;;;;;22.92;12.00;;;2.80;1.00;;;;;;6130130;23;20234;-85
2022/03/04 04:11:20;;;;;;;22.73;13.38;;;2.80;1.00;;;;;;6131963;23;20192;-85
2022/03/04 04:13:47;;;;;;;22.92;12.82;;;2.80;1.00;;;;;;6132119;23;20540;-85
2022/03/04 04:16:16;;;;;;;19.10;13.38;;;2.90;1.00;;;;;;6132317;23;20192;-84
2022/03/04 04:18:43;;;;;;;24.95;13.40;;;2.80;1.00;;;;;;6132303;23;20311;-85
2022/03/04 04:21:10;;;;;;;21.42;13.63;;;2.80;1.00;;;;;;6132463;23;20211;-85
2022/03/04 04:23:38;;;;;;;20.38;12.45;;;2.80;1.00;;;;;;6136117;23;20200;-84
2022/03/04 04:26:09;;;;;;;24.55;11.40;;;2.80;1.00;;;;;;6134133;23;20958;-85
2022/03/04 04:28:35;;;;;;;23.88;13.80;;;2.80;1.00;;;;;;6132726;23;20667;-85
2022/03/04 04:31:02;;;;;;;21.27;11.70;;;2.80;1.00;;;;;;6134785;23;20252;-85
2022/03/04 04:33:31;;;;;;;17.73;11.40;;;2.70;1.00;;;;;;6133275;23;21052;-85
2022/03/04 04:35:58;;;;;;;22.10;11.55;;;2.70;1.00;;;;;;6132957;23;20674;-85
2022/03/04 04:38:25;;;;;;;23.25;12.20;;;2.70;1.00;;;;;;6132623;23;20196;-85
2022/03/04 04:40:54;;;;;;;23.15;12.52;;;2.60;1.00;;;;;;6130770;23;20218;-84
2022/03/04 04:43:23;;;;;;;21.27;11.98;;;2.40;1.00;;;;;;6135457;23;20871;-85
2022/03/04 04:45:50;;;;;;;28.90;13.68;;;2.30;1.00;;;;;;6134273;23;20207;-84
2022/03/04 04:48:18;;;;;;;25.38;12.93;;;2.20;1.00;;;;;;6137188;23;20200;-83
2022/03/04 04:50:47;;;;;;;25.30;14.35;;;2.10;1.00;;;;;;6142709;23;20259;-83
2022/03/04 04:53:14;;;;;;;29.13;12.77;;;2.00;1.00;;;;;;6147286;23;20208;-82
2022/03/04 04:55:44;;;;;;;26.25;13.65;;;2.00;1.00;;;;;;6134304;23;20196;-81
2022/03/04 04:58:13;;;;;;;24.17;12.85;;;2.00;1.00;;;;;;6140952;23;20267;-85
2022/03/04 05:00:45;;;;;;;23.38;14.10;;;2.00;1.00;;;;;;6147343;23;20231;-84
2022/03/04 05:03:12;;;;;;;26.33;15.45;;;2.00;1.00;;;;;;6143901;23;20203;-86
2022/03/04 05:05:42;;;;;;;24.60;14.82;;;1.90;1.00;;;;;;6152422;23;20226;-83
2022/03/04 05:08:09;;;;;;;18.98;12.90;;;1.90;1.00;;;;;;6156137;23;20172;-86
2022/03/04 05:10:36;;;;;;;22.92;14.48;;;1.90;1.00;;;;;;6151764;23;21073;-84
2022/03/04 05:13:03;;;;;;;22.38;14.25;;;1.80;1.00;;;;;;6153867;23;20198;-86
2022/03/04 05:15:33;;;;;;;28.33;18.40;;;1.80;1.00;;;;;;6151946;23;20200;-86
2022/03/04 05:18:02;;;;;;;24.05;14.40;;;1.70;1.00;;;;;;6152140;23;20188;-84
2022/03/04 05:20:29;;;;;;;27.60;13.85;;;1.70;1.00;;;;;;6141023;23;20733;-85
2022/03/04 05:22:58;;;;;;;28.92;17.33;;;1.80;1.00;;;;;;6153413;23;20198;-85
2022/03/04 05:25:33;;;;;;;21.55;14.07;;;1.80;1.00;;;;;;6154951;23;20242;-85
2022/03/04 05:31:09;;;;;;;24.45;13.50;;;1.90;1.00;;;;;;6143417;23;20298;-84
2022/03/04 05:33:36;;;;;;;30.52;14.73;;;1.90;1.00;;;;;;6149143;23;20187;-84
2022/03/04 05:36:05;;;;;;;27.65;14.05;;;2.00;1.00;;;;;;6154003;23;20200;-83
2022/03/04 05:38:46;;;;;;;29.00;14.20;;;2.10;1.00;;;;;;6144681;23;20800;-85
2022/03/04 05:41:14;;;;;;;23.80;14.45;;;2.30;1.00;;;;;;6140650;23;20226;-83
2022/03/04 05:43:42;;;;;;;25.42;15.05;;;2.30;1.00;;;;;;6146193;23;20196;-86
2022/03/04 05:46:15;;;;;;;24.80;13.75;;;2.40;1.00;;;;;;6149032;23;20234;-85
2022/03/04 05:48:49;;;;;;;24.02;13.98;;;2.40;1.00;;;;;;6147024;23;20283;-85
2022/03/04 05:51:16;;;;;;;25.58;13.15;;;2.40;1.00;;;;;;6141496;23;20200;-80
2022/03/04 05:53:42;;;;;;;22.27;14.30;;;2.50;1.00;;;;;;6129089;23;20673;-84
2022/03/04 05:56:10;;;;;;;23.40;13.15;;;2.50;1.00;;;;;;6135418;23;20243;-84
2022/03/04 05:58:38;;;;;;;19.95;12.75;;;2.50;1.00;;;;;;6139407;23;20188;-86
2022/03/04 06:01:07;;;;;;;15.52;9.85;;;2.60;1.00;;;;;;6139939;23;20211;-85
2022/03/04 06:03:59;;;;;;;22.67;11.18;;;2.80;1.00;;;;;;6148924;23;20204;-84
2022/03/04 06:06:26;;;;;;;14.63;10.15;;;2.80;1.00;;;;;;6126419;23;20188;-85
2022/03/04 06:08:53;;;;;;;14.75;9.10;;;2.90;1.00;;;;;;6124451;23;20290;-87
2022/03/04 06:11:21;;;;;;;9.55;8.05;;;3.00;1.00;;;;;;6126613;23;20202;-84
2022/03/04 06:13:48;;;;;;;13.52;8.82;;;3.10;1.00;;;;;;6129489;23;20231;-83
2022/03/04 06:16:14;;;;;;;17.35;10.32;;;3.10;1.00;;;;;;6131465;23;20278;-83
2022/03/04 06:18:41;;;;;;;11.05;7.00;;;3.10;1.00;;;;;;6131457;23;20180;-84
2022/03/04 06:21:10;;;;;;;10.73;7.05;;;3.10;1.00;;;;;;6129216;23;20241;-85
2022/03/04 06:23:37;;;;;;;10.55;6.20;;;3.10;1.00;;;;;;6129864;23;20206;-83
2022/03/04 06:26:08;;;;;;;13.57;6.63;;;3.20;1.00;;;;;;6129055;23;20195;-84
2022/03/04 06:28:35;;;;;;;8.32;6.75;;;3.20;1.00;;;;;;6133673;23;20886;-85
2022/03/04 06:31:02;;;;;;;8.68;6.38;;;3.30;1.00;;;;;;6128308;23;20196;-80
2022/03/04 06:33:32;;;;;;;8.98;5.55;;;3.30;1.00;;;;;;6135601;23;20206;-84
2022/03/04 06:36:04;;;;;;;6.47;5.20;;;3.40;1.00;;;;;;6136587;23;20184;-86
2022/03/04 06:38:35;;;;;;;10.75;5.80;;;3.40;1.00;;;;;;6142444;23;20204;-86
2022/03/04 06:41:07;;;;;;;8.50;5.78;;;3.40;1.00;;;;;;6137541;23;20196;-89
2022/03/04 06:43:36;;;;;;;12.95;5.80;;;3.40;1.00;;;;;;6135258;23;20274;-83
2022/03/04 06:46:08;;;;;;;10.52;4.93;;;3.50;1.00;;;;;;6131857;23;20849;-85
2022/03/04 06:48:36;;;;;;;10.38;5.55;;;3.50;1.00;;;;;;6128742;23;20184;-83
2022/03/04 06:51:04;;;;;;;7.38;5.00;;;3.60;1.00;;;;;;6128145;23;21392;-83
2022/03/04 06:53:31;;;;;;;10.10;5.10;;;3.60;1.00;;;;;;6132949;23;20219;-83
2022/03/04 06:56:00;;;;;;;7.18;4.85;;;3.60;1.00;;;;;;6126965;23;20258;-84
2022/03/04 06:58:27;;;;;;;8.68;6.13;;;3.60;1.00;;;;;;6129099;23;20243;-83
2022/03/04 07:00:55;;;;;;;9.30;5.10;;;3.70;1.00;;;;;;6141512;23;20191;-84
2022/03/04 07:03:23;;;;;;;11.38;5.13;;;3.70;1.00;;;;;;6136098;23;20192;-83
2022/03/04 07:05:50;;;;;;;6.70;4.75;;;3.70;1.00;;;;;;6127375;23;20448;-83
2022/03/04 07:08:17;;;;;;;11.55;5.90;;;3.80;1.00;;;;;;6130189;23;20274;-84
2022/03/04 07:10:44;;;;;;;4.47;4.05;;;3.90;1.00;;;;;;6127224;23;20207;-79
2022/03/04 07:13:13;;;;;;;5.55;4.63;;;3.90;1.00;;;;;;6127831;23;20275;-83
2022/03/04 07:15:40;;;;;;;9.73;4.85;;;3.80;1.00;;;;;;6133407;23;20196;-80
2022/03/04 07:18:07;;;;;;;6.35;4.05;;;3.90;1.00;;;;;;6133185;23;21363;-83
2022/03/04 07:20:34;;;;;;;6.60;4.50;;;3.80;1.00;;;;;;6131003;23;20195;-82
2022/03/04 07:23:01;;;;;;;10.43;4.60;;;3.80;1.00;;;;;;6127176;23;20196;-83
2022/03/04 07:25:28;;;;;;;8.40;4.50;;;3.70;1.00;;;;;;6128152;23;20200;-82
2022/03/04 07:27:56;;;;;;;8.02;4.20;;;3.70;1.00;;;;;;6127600;23;20275;-81
2022/03/04 07:30:25;;;;;;;9.20;4.60;;;3.70;1.00;;;;;;6123053;23;20212;-84
2022/03/04 07:32:54;;;;;;;7.47;4.70;;;3.80;1.00;;;;;;6127855;23;20195;-83
2022/03/04 07:35:22;;;;;;;7.75;4.80;;;3.90;1.00;;;;;;6127206;23;20262;-81
2022/03/04 07:37:49;;;;;;;8.38;5.05;;;4.00;1.00;;;;;;6126513;23;20203;-80
2022/03/04 07:40:16;;;;;;;12.13;5.50;;;4.10;1.00;;;;;;6125205;23;20243;-80
2022/03/04 07:42:46;;;;;;;12.82;6.25;;;4.10;1.00;;;;;;6121850;23;20278;-79
2022/03/04 07:45:14;;;;;;;6.88;4.85;;;4.20;1.00;;;;;;6122625;23;20203;-80
2022/03/04 07:47:43;;;;;;;10.52;5.95;;;4.20;1.00;;;;;;6125833;23;20199;-80
2022/03/04 07:50:12;;;;;;;9.15;5.28;;;4.30;1.00;;;;;;6125684;23;20241;-79
2022/03/04 07:52:39;;;;;;;27.30;19.33;;;4.30;1.00;;;;;;6123944;23;21128;-79
2022/03/04 07:55:09;;;;;;;12.65;6.35;;;4.40;1.00;;;;;;6124051;23;20203;-81
2022/03/04 07:57:37;;;;;;;7.88;5.47;;;4.40;1.00;;;;;;6127262;23;20222;-81
2022/03/04 08:00:10;;;;;;;9.85;5.55;;;4.40;1.00;;;;;;6133053;23;20211;-81
2022/03/04 08:02:37;;;;;;;9.77;6.68;;;4.50;1.00;;;;;;6129559;23;20203;-80
2022/03/04 08:05:08;;;;;;;13.43;6.85;;;4.60;1.00;;;;;;6130099;23;20203;-80
2022/03/04 08:07:35;;;;;;;10.70;6.05;;;4.70;1.00;;;;;;6130265;23;20280;-81
2022/03/04 08:10:02;;;;;;;14.60;7.07;;;4.80;1.00;;;;;;6130368;23;20211;-80
2022/03/04 08:12:29;;;;;;;10.13;5.43;;;4.80;1.00;;;;;;6134773;23;20208;-80
2022/03/04 08:14:56;;;;;;;12.20;6.07;;;4.90;1.00;;;;;;6134932;23;20192;-81
2022/03/04 08:17:23;;;;;;;9.07;4.50;;;5.00;1.00;;;;;;6133986;23;21215;-80
2022/03/04 08:19:50;;;;;;;14.85;4.80;;;5.10;1.00;;;;;;6133251;23;20587;-81
2022/03/04 08:22:22;;;;;;;7.80;4.68;;;5.20;1.00;;;;;;6129251;23;20195;-80
2022/03/04 08:24:48;;;;;;;9.23;4.90;;;5.30;1.00;;;;;;6131966;23;20188;-81
2022/03/04 08:27:15;;;;;;;8.85;4.50;;;5.30;1.00;;;;;;6132739;23;20196;-82
2022/03/04 08:29:42;;;;;;;4.70;3.83;;;5.30;1.00;;;;;;6131562;23;20204;-80
2022/03/04 08:32:10;;;;;;;13.43;4.57;;;5.40;1.00;;;;;;6129879;23;20270;-81
2022/03/04 08:34:37;;;;;;;7.03;4.50;;;5.30;1.00;;;;;;6133785;23;20199;-81
2022/03/04 08:37:04;;;;;;;14.63;6.22;;;5.30;1.00;;;;;;6134813;23;20200;-81
2022/03/04 08:39:33;;;;;;;10.32;5.43;;;5.30;1.00;;;;;;6143614;23;20192;-79
2022/03/04 08:42:00;;;;;;;15.75;12.27;;;5.30;1.00;;;;;;6148467;23;20302;-81
2022/03/04 08:44:26;;;;;;;8.50;4.70;;;5.30;1.00;;;;;;6153352;23;20657;-81
2022/03/04 08:46:53;;;;;;;5.05;3.60;;;5.20;1.00;;;;;;6149030;23;20191;-80
2022/03/04 08:49:20;;;;;;;7.30;3.35;;;5.20;1.00;;;;;;6148020;23;20192;-80
2022/03/04 08:51:47;;;;;;;5.93;4.30;;;5.20;1.00;;;;;;6143983;23;20192;-80
2022/03/04 08:54:14;;;;;;;7.18;4.72;;;5.20;1.00;;;;;;6142859;23;20204;-80
2022/03/04 08:56:42;;;;;;;5.95;4.35;;;5.10;1.00;;;;;;6139144;23;20986;-80
2022/03/04 08:59:12;;;;;;;5.15;2.92;;;5.10;1.00;;;;;;6133399;23;20192;-81
2022/03/04 09:01:38;;;;;;;5.47;3.33;;;5.10;1.00;;;;;;6130700;23;20330;-81
2022/03/04 09:04:05;;;;;;;12.57;4.05;;;5.10;1.00;;;;;;6131256;23;20204;-82
2022/03/04 09:06:33;;;;;;;8.50;3.55;;;5.10;1.00;;;;;;6131690;23;20243;-80
2022/03/04 09:09:01;;;;;;;10.80;3.60;;;5.10;1.00;;;;;;6132544;23;20188;-82
2022/03/04 09:11:30;;;;;;;6.60;3.22;;;5.10;1.00;;;;;;6127799;23;20236;-86
2022/03/04 09:13:58;;;;;;;7.63;3.40;;;5.10;1.00;;;;;;6125997;23;20742;-84
2022/03/04 09:16:25;;;;;;;13.77;5.70;;;5.20;1.00;;;;;;6126039;23;20702;-86
2022/03/04 09:18:51;;;;;;;10.45;4.43;;;5.20;1.00;;;;;;6126636;23;20196;-86
2022/03/04 09:21:18;;;;;;;8.68;4.55;;;5.30;1.00;;;;;;6126510;23;20251;-84
2022/03/04 09:23:45;;;;;;;7.28;4.72;;;5.40;1.00;;;;;;6125341;23;21246;-82
2022/03/04 09:26:12;;;;;;;6.90;3.80;;;5.50;1.00;;;;;;6124058;23;20888;-82
2022/03/04 09:28:39;;;;;;;8.23;4.03;;;5.60;1.00;;;;;;6126365;23;20204;-83
2022/03/04 09:31:07;;;;;;;5.47;4.28;;;5.70;1.00;;;;;;6124086;23;20207;-81
2022/03/04 09:33:35;;;;;;;6.90;4.30;;;5.90;1.00;;;;;;6129879;23;20251;-80
2022/03/04 09:36:02;;;;;;;6.15;3.28;;;6.10;1.00;;;;;;6137712;23;20278;-80
2022/03/04 09:38:28;;;;;;;12.00;4.45;;;6.20;1.00;;;;;;6133164;23;20196;-81
2022/03/04 09:40:55;;;;;;;9.13;4.63;;;6.30;1.00;;;;;;6123817;23;20222;-81
2022/03/04 09:43:26;;;;;;;9.27;4.47;;;6.50;1.00;;;;;;6132892;23;20198;-80
2022/03/04 09:45:54;;;;;;;9.38;4.13;;;6.70;1.00;;;;;;6130659;23;20275;-81
2022/03/04 09:48:24;;;;;;;6.57;3.38;;;6.90;1.00;;;;;;6125969;23;20198;-82
2022/03/04 09:50:52;;;;;;;14.18;8.98;;;7.30;1.00;;;;;;6126432;23;20220;-81
2022/03/04 09:53:19;;;;;;;7.03;4.00;;;7.70;1.00;;;;;;6128799;23;20199;-81
2022/03/04 09:55:46;;;;;;;4.75;3.78;;;7.70;1.00;;;;;;6128606;23;20203;-81
2022/03/04 09:58:14;;;;;;;9.00;3.25;;;7.70;1.00;;;;;;6125717;23;20616;-82
2022/03/04 10:00:42;;;;;;;5.07;2.70;;;7.70;1.00;;;;;;6128663;23;20636;-82
2022/03/04 10:03:22;;;;;;;7.22;3.42;;;7.80;1.00;;;;;;6131157;23;20208;-81
2022/03/04 10:05:53;;;;;;;5.95;3.38;;;7.80;1.00;;;;;;6124382;23;20697;-82
2022/03/04 10:08:21;;;;;;;5.25;3.65;;;7.80;1.00;;;;;;6124649;23;20251;-82
2022/03/04 10:10:52;;;;;;;9.25;4.18;;;8.00;1.00;;;;;;6125424;23;20263;-82
2022/03/04 10:13:20;;;;;;;11.05;3.58;;;8.10;1.00;;;;;;6148566;23;20401;-81
2022/03/04 10:15:59;;;;;;;8.15;4.57;;;8.20;1.00;;;;;;6146871;23;20180;-80
2022/03/04 10:18:29;;;;;;;8.48;3.35;;;8.30;1.00;;;;;;6128974;23;20292;-78
2022/03/04 10:20:55;;;;;;;3.47;2.15;;;8.40;1.00;;;;;;6121367;23;21323;-80
2022/03/04 10:23:24;;;;;;;4.75;2.30;;;8.20;1.00;;;;;;6122518;23;20243;-82
2022/03/04 10:25:53;;;;;;;4.50;3.25;;;8.10;1.00;;;;;;6123508;23;20196;-82
2022/03/04 10:28:23;;;;;;;7.75;3.75;;;7.90;1.00;;;;;;6123823;23;20246;-80
2022/03/04 10:30:51;;;;;;;3.00;2.50;;;7.90;1.00;;;;;;6126523;23;20211;-81
2022/03/04 10:33:19;;;;;;;9.38;2.85;;;7.90;1.00;;;;;;6126076;23;20745;-80
2022/03/04 10:36:05;;;;;;;5.97;3.10;;;7.60;1.00;;;;;;6126976;23;20273;-80
2022/03/04 10:38:34;;;;;;;6.60;3.65;;;7.30;1.00;;;;;;6122655;23;20523;-81
2022/03/04 10:41:01;;;;;;;4.97;3.60;;;7.10;1.00;;;;;;6128213;23;20227;-81
2022/03/04 10:43:33;;;;;;;8.50;4.18;;;6.90;1.00;;;;;;6126768;23;20274;-80
2022/03/04 10:46:02;;;;;;;8.45;4.88;;;6.60;1.00;;;;;;6126428;23;20335;-81
2022/03/04 10:48:29;;;;;;;6.40;4.10;;;6.60;1.00;;;;;;6127523;23;20192;-81
2022/03/04 10:50:59;;;;;;;9.05;5.57;;;6.50;1.00;;;;;;6125094;23;20696;-81
2022/03/04 10:53:28;;;;;;;4.63;3.97;;;6.50;1.00;;;;;;6126593;23;20199;-81
2022/03/04 10:55:56;;;;;;;10.15;3.67;;;6.50;1.00;;;;;;6126046;23;20196;-80
2022/03/04 10:58:24;;;;;;;5.50;3.00;;;6.60;1.00;;;;;;6126988;23;20194;-81
2022/03/04 11:00:53;;;;;;;8.95;3.50;;;6.60;1.00;;;;;;6126361;23;20270;-82
2022/03/04 11:03:22;;;;;;;4.60;2.80;;;6.60;1.00;;;;;;6138057;23;20187;-83
2022/03/04 11:05:54;;;;;;;4.10;2.40;;;6.60;1.00;;;;;;6126508;23;20192;-80
2022/03/04 11:08:22;;;;;;;4.57;2.58;;;6.50;1.00;;;;;;6123806;23;20323;-80
2022/03/04 11:10:51;;;;;;;4.57;1.98;;;6.50;1.00;;;;;;6122400;23;20249;-85
2022/03/04 11:13:18;;;;;;;4.13;2.67;;;6.50;1.00;;;;;;6120889;23;20312;-84
2022/03/04 11:15:47;;;;;;;6.55;3.13;;;6.50;1.00;;;;;;6123152;23;20200;-83
2022/03/04 11:18:16;;;;;;;5.78;2.70;;;6.50;1.00;;;;;;6121053;23;20290;-83
2022/03/04 11:20:45;;;;;;;6.82;2.40;;;6.70;1.00;;;;;;6120489;23;20203;-83
2022/03/04 11:23:18;;;;;;;4.40;1.85;;;6.80;1.00;;;;;;6123836;23;20497;-84
2022/03/04 11:25:53;;;;;;;7.18;2.88;;;6.90;1.00;;;;;;6123971;23;20289;-84
2022/03/04 11:28:26;;;;;;;4.45;1.83;;;6.90;1.00;;;;;;6123422;23;20179;-83
2022/03/04 11:31:00;;;;;;;4.90;1.98;;;7.00;1.00;;;;;;6123475;23;20326;-83
2022/03/04 11:33:29;;;;;;;3.83;1.98;;;7.00;1.00;;;;;;6120107;23;20206;-83
2022/03/04 11:36:07;;;;;;;8.10;3.25;;;7.00;1.00;;;;;;6123763;23;20247;-83
2022/03/04 11:39:14;;;;;;;4.70;2.00;;;7.10;1.00;;;;;;6121283;23;20202;-83
2022/03/04 11:42:11;;;;;;;5.40;2.27;;;9.90;1.00;;;;;;6119542;23;20692;-84
2022/03/04 11:45:02;;;;;;;7.27;2.50;;;12.50;1.00;;;;;;6119889;23;20411;-84
2022/03/04 11:47:39;;;;;;;3.20;1.90;;;13.40;1.00;;;;;;6121890;23;20396;-83
2022/03/04 11:50:29;;;;;;;6.47;3.33;;;13.30;1.00;;;;;;6111125;23;20491;-83
2022/03/04 11:53:11;;;;;;;4.47;2.50;;;13.00;1.00;;;;;;6122122;23;20440;-83
2022/03/04 11:55:39;;;;;;;7.30;3.80;;;12.20;1.00;;;;;;6119214;23;21506;-81
2022/03/04 11:58:06;;;;;;;8.43;5.93;;;11.60;1.00;;;;;;6121012;23;20404;-82
2022/03/04 12:00:39;;;;;;;7.43;5.53;;;10.90;1.00;;;;;;6120491;23;21744;-82
2022/03/04 12:03:18;;;;;;;7.03;5.70;;;10.30;1.00;;;;;;6125593;23;20369;-82
2022/03/04 12:06:01;;;;;;;6.60;5.90;;;9.90;1.00;;;;;;6128814;23;20411;-83
2022/03/04 12:08:41;;;;;;;7.57;5.60;;;9.40;1.00;;;;;;6125024;23;20405;-84
2022/03/04 12:11:08;;;;;;;7.33;5.83;;;9.10;1.00;;;;;;6132299;23;20235;-79
2022/03/04 12:13:42;;;;;;;7.93;5.10;;;9.00;1.00;;;;;;6140610;23;20761;-81
2022/03/04 12:16:14;;;;;;;7.93;5.30;;;9.80;1.00;;;;;;6143664;23;20380;-81
2022/03/04 12:18:45;;;;;;;5.40;4.90;;;13.40;1.00;;;;;;6142952;23;20480;-81
2022/03/04 12:21:26;;;;;;;10.47;5.57;;;17.40;1.00;;;;;;6141832;23;20404;-82
2022/03/04 12:24:01;;;;;;;5.53;4.63;;;20.00;1.00;;;;;;6130509;23;20444;-80
2022/03/04 12:26:36;;;;;;;5.10;3.90;;;19.90;1.00;;;;;;6130653;23;20468;-80
2022/03/04 12:29:06;;;;;;;3.60;2.47;;;17.80;1.00;;;;;;6119687;23;20459;-82
2022/03/04 12:31:39;;;;;;;4.30;2.60;;;15.80;1.00;;;;;;6123970;23;20597;-81
2022/03/04 12:34:16;;;;;;;4.07;2.50;;;14.00;1.00;;;;;;6124533;23;21543;-82
2022/03/04 12:36:43;;;;;;;4.73;3.00;;;12.60;1.00;;;;;;6121510;23;20424;-80
2022/03/04 12:39:11;;;;;;;4.47;3.37;;;11.80;1.00;;;;;;6129006;23;20432;-81
2022/03/04 12:41:39;;;;;;;10.03;6.10;;;11.20;1.00;;;;;;6123376;23;20471;-81
2022/03/04 12:44:07;;;;;;;6.63;6.03;;;10.80;1.00;;;;;;6122663;23;20408;-79
2022/03/04 12:46:36;;;;;;;4.87;4.47;;;10.40;1.00;;;;;;6121806;23;21426;-79
2022/03/04 12:49:04;;;;;;;7.53;6.23;;;10.00;1.00;;;;;;6128485;23;20488;-83
2022/03/04 12:51:33;;;;;;;8.93;8.13;;;9.70;1.00;;;;;;6125336;23;20424;-81
2022/03/04 12:54:02;;;;;;;11.27;9.17;;;9.40;1.00;;;;;;6125189;23;20271;-82
2022/03/04 12:56:29;;;;;;;9.47;6.50;;;9.20;1.00;;;;;;6126399;23;20400;-82
2022/03/04 12:58:57;;;;;;;8.15;7.35;;;8.90;1.00;;;;;;6131583;23;20421;-82
2022/03/04 13:01:25;;;;;;;7.65;6.80;;;8.70;1.00;;;;;;6124759;23;20220;-83
2022/03/04 13:03:55;;;;;;;9.20;8.13;;;8.40;1.00;;;;;;6126362;23;20198;-81
2022/03/04 13:06:24;;;;;;;7.95;7.07;;;8.30;1.00;;;;;;6137381;23;20184;-79
2022/03/04 13:08:56;;;;;;;9.07;7.88;;;8.30;1.00;;;;;;6125654;23;20200;-81